sensor_id;sensor_type;location;lat;lon;timestamp;pressure;altitude;pressure_sealevel;temperature;humidity
49311;BME280;35177;45.900;5.946;2023-08-31T00:00:31;97407.66;;;12.65;90.88
49311;BME280;35177;45.900;5.946;2023-08-31T00:02:58;97402.09;;;12.68;90.73
49311;BME280;35177;45.900;5.946;2023-08-31T00:05:24;97399.09;;;12.73;90.57
49311;BME280;35177;45.900;5.946;2023-08-31T00:07:52;97408.38;;;12.78;90.49
49311;BME280;35177;45.900;5.946;2023-08-31T00:10:18;97405.34;;;12.83;90.33
49311;BME280;35177;45.900;5.946;2023-08-31T00:12:43;97408.50;;;12.77;91.25
49311;BME280;35177;45.900;5.946;2023-08-31T00:15:09;97405.72;;;12.67;91.63
49311;BME280;35177;45.900;5.946;2023-08-31T00:17:35;97407.66;;;12.65;92.17
49311;BME280;35177;45.900;5.946;2023-08-31T00:20:00;97416.56;;;12.64;92.65
49311;BME280;35177;45.900;5.946;2023-08-31T00:22:26;97414.31;;;12.71;91.79
49311;BME280;35177;45.900;5.946;2023-08-31T00:24:51;97419.47;;;12.72;91.99
49311;BME280;35177;45.900;5.946;2023-08-31T00:27:18;97423.09;;;12.71;92.44
49311;BME280;35177;45.900;5.946;2023-08-31T00:29:43;97426.00;;;12.79;91.29
49311;BME280;35177;45.900;5.946;2023-08-31T00:32:15;97424.06;;;12.81;91.92
49311;BME280;35177;45.900;5.946;2023-08-31T00:34:40;97421.41;;;12.81;91.65
49311;BME280;35177;45.900;5.946;2023-08-31T00:37:05;97415.75;;;12.86;91.76
49311;BME280;35177;45.900;5.946;2023-08-31T00:39:31;97415.16;;;12.93;90.80
49311;BME280;35177;45.900;5.946;2023-08-31T00:41:58;97413.22;;;12.84;91.51
49311;BME280;35177;45.900;5.946;2023-08-31T00:44:24;97407.66;;;12.76;91.96
49311;BME280;35177;45.900;5.946;2023-08-31T00:46:49;97411.03;;;12.78;92.15
49311;BME280;35177;45.900;5.946;2023-08-31T00:49:15;97421.19;;;12.84;92.36
49311;BME280;35177;45.900;5.946;2023-08-31T00:51:41;97414.19;;;12.83;91.76
49311;BME280;35177;45.900;5.946;2023-08-31T00:54:07;97418.53;;;12.84;91.67
49311;BME280;35177;45.900;5.946;2023-08-31T00:56:32;97417.56;;;12.96;91.41
49311;BME280;35177;45.900;5.946;2023-08-31T00:58:58;97410.56;;;12.95;91.44
49311;BME280;35177;45.900;5.946;2023-08-31T01:01:36;97415.16;;;12.93;91.94
49311;BME280;35177;45.900;5.946;2023-08-31T01:04:23;97414.53;;;12.90;92.28
49311;BME280;35177;45.900;5.946;2023-08-31T01:13:07;97412.00;;;12.99;91.20
49311;BME280;35177;45.900;5.946;2023-08-31T01:15:38;97410.31;;;12.87;91.81
49311;BME280;35177;45.900;5.946;2023-08-31T01:18:06;97416.47;;;12.88;92.14
49311;BME280;35177;45.900;5.946;2023-08-31T01:20:39;97417.69;;;12.84;91.36
49311;BME280;35177;45.900;5.946;2023-08-31T01:23:16;97414.75;;;12.76;91.44
49311;BME280;35177;45.900;5.946;2023-08-31T01:25:43;97420.22;;;12.85;91.10
49311;BME280;35177;45.900;5.946;2023-08-31T01:28:10;97425.28;;;12.88;91.34
49311;BME280;35177;45.900;5.946;2023-08-31T01:30:36;97419.75;;;12.91;91.80
49311;BME280;35177;45.900;5.946;2023-08-31T01:33:02;97430.50;;;13.01;91.30
49311;BME280;35177;45.900;5.946;2023-08-31T01:35:31;97421.31;;;12.94;91.60
49311;BME280;35177;45.900;5.946;2023-08-31T01:38:01;97420.97;;;13.09;90.72
49311;BME280;35177;45.900;5.946;2023-08-31T01:43:10;97410.78;;;12.81;92.00
49311;BME280;35177;45.900;5.946;2023-08-31T01:45:37;97407.78;;;12.75;91.90
49311;BME280;35177;45.900;5.946;2023-08-31T01:48:04;97402.19;;;12.55;92.29
49311;BME280;35177;45.900;5.946;2023-08-31T01:50:30;97408.34;;;12.56;92.55
49311;BME280;35177;45.900;5.946;2023-08-31T01:52:55;97401.47;;;12.53;93.46
49311;BME280;35177;45.900;5.946;2023-08-31T01:55:24;97409.22;;;12.68;93.05
49311;BME280;35177;45.900;5.946;2023-08-31T01:57:49;97411.16;;;12.88;92.13
49311;BME280;35177;45.900;5.946;2023-08-31T02:00:17;97407.41;;;12.90;91.50
49311;BME280;35177;45.900;5.946;2023-08-31T02:02:42;97403.09;;;12.89;91.18
49311;BME280;35177;45.900;5.946;2023-08-31T02:05:08;97400.44;;;12.89;90.94
49311;BME280;35177;45.900;5.946;2023-08-31T02:07:34;97398.25;;;12.83;91.35
49311;BME280;35177;45.900;5.946;2023-08-31T02:09:59;97396.31;;;12.85;91.87
49311;BME280;35177;45.900;5.946;2023-08-31T02:12:25;97400.91;;;12.83;92.11
49311;BME280;35177;45.900;5.946;2023-08-31T02:14:50;97405.34;;;12.83;91.59
49311;BME280;35177;45.900;5.946;2023-08-31T02:17:16;97410.22;;;12.89;91.32
49311;BME280;35177;45.900;5.946;2023-08-31T02:19:41;97411.16;;;12.99;91.21
49311;BME280;35177;45.900;5.946;2023-08-31T02:22:07;97410.06;;;13.01;90.80
49311;BME280;35177;45.900;5.946;2023-08-31T02:24:32;97404.53;;;13.04;90.30
49311;BME280;35177;45.900;5.946;2023-08-31T02:26:58;97412.84;;;13.00;90.95
49311;BME280;35177;45.900;5.946;2023-08-31T02:29:23;97415.91;;;13.06;90.70
49311;BME280;35177;45.900;5.946;2023-08-31T02:31:48;97414.69;;;13.10;90.65
49311;BME280;35177;45.900;5.946;2023-08-31T02:34:14;97417.94;;;13.03;91.36
49311;BME280;35177;45.900;5.946;2023-08-31T02:36:40;97414.56;;;13.01;91.49
49311;BME280;35177;45.900;5.946;2023-08-31T02:39:05;97417.25;;;13.12;90.81
49311;BME280;35177;45.900;5.946;2023-08-31T02:41:31;97414.09;;;13.07;90.90
49311;BME280;35177;45.900;5.946;2023-08-31T02:43:57;97416.63;;;13.08;91.23
49311;BME280;35177;45.900;5.946;2023-08-31T02:46:23;97420.97;;;13.09;90.22
49311;BME280;35177;45.900;5.946;2023-08-31T02:48:48;97421.56;;;13.02;90.97
49311;BME280;35177;45.900;5.946;2023-08-31T02:51:14;97427.94;;;12.88;91.92
49311;BME280;35177;45.900;5.946;2023-08-31T02:53:39;97417.09;;;12.91;92.96
49311;BME280;35177;45.900;5.946;2023-08-31T02:56:04;97427.22;;;12.86;93.11
49311;BME280;35177;45.900;5.946;2023-08-31T02:58:30;97422.13;;;12.83;94.11
49311;BME280;35177;45.900;5.946;2023-08-31T03:01:14;97420.97;;;12.98;92.48
49311;BME280;35177;45.900;5.946;2023-08-31T03:03:40;97420.69;;;12.90;92.54
49311;BME280;35177;45.900;5.946;2023-08-31T03:06:07;97420.69;;;12.90;92.35
49311;BME280;35177;45.900;5.946;2023-08-31T03:08:36;97426.84;;;12.80;93.27
49311;BME280;35177;45.900;5.946;2023-08-31T03:11:05;97426.72;;;12.81;92.80
49311;BME280;35177;45.900;5.946;2023-08-31T03:13:31;97418.41;;;12.75;93.29
49311;BME280;35177;45.900;5.946;2023-08-31T03:15:57;97425.06;;;12.91;92.61
49311;BME280;35177;45.900;5.946;2023-08-31T03:18:22;97425.78;;;12.93;92.39
49311;BME280;35177;45.900;5.946;2023-08-31T03:20:48;97430.59;;;12.88;92.43
49311;BME280;35177;45.900;5.946;2023-08-31T03:23:14;97435.91;;;12.88;92.82
49311;BME280;35177;45.900;5.946;2023-08-31T03:25:39;97431.69;;;12.86;93.39
49311;BME280;35177;45.900;5.946;2023-08-31T03:28:05;97429.25;;;12.72;94.46
49311;BME280;35177;45.900;5.946;2023-08-31T03:30:30;97432.75;;;12.83;93.28
49311;BME280;35177;45.900;5.946;2023-08-31T03:32:56;97432.16;;;12.91;93.13
49311;BME280;35177;45.900;5.946;2023-08-31T03:35:21;97436.84;;;12.87;93.40
49311;BME280;35177;45.900;5.946;2023-08-31T03:37:52;97434.47;;;12.84;93.65
49311;BME280;35177;45.900;5.946;2023-08-31T03:40:17;97434.69;;;12.81;93.43
49311;BME280;35177;45.900;5.946;2023-08-31T03:42:43;97439.06;;;12.82;94.38
49311;BME280;35177;45.900;5.946;2023-08-31T03:45:08;97438.31;;;12.80;94.78
49311;BME280;35177;45.900;5.946;2023-08-31T03:47:34;97435.75;;;12.68;95.01
49311;BME280;35177;45.900;5.946;2023-08-31T03:49:59;97440.72;;;12.72;95.22
49311;BME280;35177;45.900;5.946;2023-08-31T03:52:25;97440.00;;;12.81;94.30
49311;BME280;35177;45.900;5.946;2023-08-31T03:54:51;97449.25;;;12.65;95.14
49311;BME280;35177;45.900;5.946;2023-08-31T03:57:16;97447.81;;;12.61;95.30
49311;BME280;35177;45.900;5.946;2023-08-31T03:59:42;97444.44;;;12.70;94.65
49311;BME280;35177;45.900;5.946;2023-08-31T04:02:07;97450.47;;;12.61;95.01
49311;BME280;35177;45.900;5.946;2023-08-31T04:04:32;97449.38;;;12.52;96.21
49311;BME280;35177;45.900;5.946;2023-08-31T04:06:59;97447.59;;;12.64;95.16
49311;BME280;35177;45.900;5.946;2023-08-31T04:09:25;97444.69;;;12.67;94.60
49311;BME280;35177;45.900;5.946;2023-08-31T04:11:50;97449.41;;;12.74;93.79
49311;BME280;35177;45.900;5.946;2023-08-31T04:14:16;97448.31;;;12.77;93.05
49311;BME280;35177;45.900;5.946;2023-08-31T04:16:43;97457.09;;;12.66;93.40
49311;BME280;35177;45.900;5.946;2023-08-31T04:19:09;97465.81;;;12.68;93.98
49311;BME280;35177;45.900;5.946;2023-08-31T04:21:34;97467.63;;;12.79;93.24
49311;BME280;35177;45.900;5.946;2023-08-31T04:24:00;97457.16;;;12.77;93.05
49311;BME280;35177;45.900;5.946;2023-08-31T04:26:25;97460.03;;;12.74;92.88
49311;BME280;35177;45.900;5.946;2023-08-31T04:28:50;97477.75;;;12.74;93.29
49311;BME280;35177;45.900;5.946;2023-08-31T04:31:16;97476.03;;;12.62;93.50
49311;BME280;35177;45.900;5.946;2023-08-31T04:33:42;97485.72;;;12.74;92.96
49311;BME280;35177;45.900;5.946;2023-08-31T04:36:07;97473.53;;;12.71;93.11
49311;BME280;35177;45.900;5.946;2023-08-31T04:38:37;97492.63;;;12.87;92.39
49311;BME280;35177;45.900;5.946;2023-08-31T04:41:03;97494.84;;;12.93;91.95
49311;BME280;35177;45.900;5.946;2023-08-31T04:43:29;97500.34;;;12.79;93.18
49311;BME280;35177;45.900;5.946;2023-08-31T04:45:55;97489.00;;;12.77;93.10
49311;BME280;35177;45.900;5.946;2023-08-31T04:48:20;97494.31;;;12.77;93.38
49311;BME280;35177;45.900;5.946;2023-08-31T04:50:46;97496.97;;;12.77;93.57
49311;BME280;35177;45.900;5.946;2023-08-31T04:53:11;97499.38;;;12.80;93.59
49311;BME280;35177;45.900;5.946;2023-08-31T04:55:37;97498.44;;;12.81;94.18
49311;BME280;35177;45.900;5.946;2023-08-31T04:58:05;97507.97;;;12.84;93.94
49311;BME280;35177;45.900;5.946;2023-08-31T05:00:31;97510.28;;;12.88;94.05
49311;BME280;35177;45.900;5.946;2023-08-31T05:02:57;97515.09;;;12.94;93.71
49311;BME280;35177;45.900;5.946;2023-08-31T05:05:23;97511.00;;;13.01;92.55
49311;BME280;35177;45.900;5.946;2023-08-31T05:07:49;97518.03;;;13.02;92.96
49311;BME280;35177;45.900;5.946;2023-08-31T05:10:14;97518.75;;;12.93;93.44
49311;BME280;35177;45.900;5.946;2023-08-31T05:12:40;97516.81;;;12.95;93.53
49311;BME280;35177;45.900;5.946;2023-08-31T05:15:06;97521.53;;;13.03;93.10
49311;BME280;35177;45.900;5.946;2023-08-31T05:17:32;97524.28;;;13.01;93.05
49311;BME280;35177;45.900;5.946;2023-08-31T05:19:57;97525.81;;;13.05;93.24
49311;BME280;35177;45.900;5.946;2023-08-31T05:22:22;97535.63;;;13.03;94.50
49311;BME280;35177;45.900;5.946;2023-08-31T05:24:48;97531.53;;;12.99;93.90
49311;BME280;35177;45.900;5.946;2023-08-31T05:27:13;97538.56;;;13.00;93.74
49311;BME280;35177;45.900;5.946;2023-08-31T05:29:39;97546.53;;;13.00;93.74
49311;BME280;35177;45.900;5.946;2023-08-31T05:32:05;97549.47;;;13.08;93.52
49311;BME280;35177;45.900;5.946;2023-08-31T05:34:31;97554.13;;;13.05;93.41
49311;BME280;35177;45.900;5.946;2023-08-31T05:36:59;97546.69;;;13.10;92.91
49311;BME280;35177;45.900;5.946;2023-08-31T05:39:25;97553.78;;;12.98;93.41
49311;BME280;35177;45.900;5.946;2023-08-31T05:41:50;97561.47;;;12.90;94.62
49311;BME280;35177;45.900;5.946;2023-08-31T05:44:16;97555.91;;;12.93;94.39
49311;BME280;35177;45.900;5.946;2023-08-31T05:46:42;97556.41;;;12.98;94.09
49311;BME280;35177;45.900;5.946;2023-08-31T05:49:07;97555.41;;;13.12;93.27
49311;BME280;35177;45.900;5.946;2023-08-31T05:51:33;97552.88;;;13.21;92.55
49311;BME280;35177;45.900;5.946;2023-08-31T05:53:58;97560.13;;;13.31;92.07
49311;BME280;35177;45.900;5.946;2023-08-31T05:56:26;97556.84;;;13.38;91.96
49311;BME280;35177;45.900;5.946;2023-08-31T05:58:51;97546.50;;;13.35;92.62
49311;BME280;35177;45.900;5.946;2023-08-31T06:01:20;97553.47;;;13.25;92.99
49311;BME280;35177;45.900;5.946;2023-08-31T06:03:47;97553.59;;;13.35;92.87
49311;BME280;35177;45.900;5.946;2023-08-31T06:06:13;97553.88;;;13.43;92.25
49311;BME280;35177;45.900;5.946;2023-08-31T06:08:38;97553.13;;;13.41;92.33
49311;BME280;35177;45.900;5.946;2023-08-31T06:11:04;97555.78;;;13.41;92.53
49311;BME280;35177;45.900;5.946;2023-08-31T06:13:29;97553.13;;;13.41;92.73
49311;BME280;35177;45.900;5.946;2023-08-31T06:15:55;97552.16;;;13.42;91.69
49311;BME280;35177;45.900;5.946;2023-08-31T06:18:25;97553.97;;;13.41;91.54
49311;BME280;35177;45.900;5.946;2023-08-31T06:20:50;97550.94;;;13.35;91.84
49311;BME280;35177;45.900;5.946;2023-08-31T06:23:16;97555.91;;;13.39;91.64
49311;BME280;35177;45.900;5.946;2023-08-31T06:25:41;97557.00;;;13.48;90.64
49311;BME280;35177;45.900;5.946;2023-08-31T06:28:07;97565.22;;;13.45;90.78
49311;BME280;35177;45.900;5.946;2023-08-31T06:30:34;97557.72;;;13.39;90.97
49311;BME280;35177;45.900;5.946;2023-08-31T06:33:00;97569.31;;;13.38;90.96
49311;BME280;35177;45.900;5.946;2023-08-31T06:35:26;97574.16;;;13.44;90.53
49311;BME280;35177;45.900;5.946;2023-08-31T06:37:51;97572.22;;;13.57;91.14
49311;BME280;35177;45.900;5.946;2023-08-31T06:40:16;97576.72;;;13.56;91.12
49311;BME280;35177;45.900;5.946;2023-08-31T06:42:42;97584.81;;;13.66;89.75
49311;BME280;35177;45.900;5.946;2023-08-31T06:45:08;97587.72;;;13.74;89.07
49311;BME280;35177;45.900;5.946;2023-08-31T06:47:34;97588.19;;;13.79;89.03
49311;BME280;35177;45.900;5.946;2023-08-31T06:50:00;97592.91;;;13.86;88.68
49311;BME280;35177;45.900;5.946;2023-08-31T06:52:26;97587.22;;;13.91;88.22
49311;BME280;35177;45.900;5.946;2023-08-31T06:54:52;97587.34;;;14.01;87.73
49311;BME280;35177;45.900;5.946;2023-08-31T06:57:24;97589.13;;;14.11;87.93
49311;BME280;35177;45.900;5.946;2023-08-31T06:59:50;97585.25;;;14.37;86.75
49311;BME280;35177;45.900;5.946;2023-08-31T07:02:16;97582.69;;;14.36;85.92
49311;BME280;35177;45.900;5.946;2023-08-31T07:04:41;97575.63;;;14.57;83.43
49311;BME280;35177;45.900;5.946;2023-08-31T07:07:07;97577.91;;;14.61;82.62
49311;BME280;35177;45.900;5.946;2023-08-31T07:09:34;97574.50;;;14.59;81.64
49311;BME280;35177;45.900;5.946;2023-08-31T07:12:00;97585.88;;;14.73;82.09
49311;BME280;35177;45.900;5.946;2023-08-31T07:14:26;97579.06;;;14.80;79.30
49311;BME280;35177;45.900;5.946;2023-08-31T07:16:52;97573.44;;;14.83;78.11
49311;BME280;35177;45.900;5.946;2023-08-31T07:19:17;97588.56;;;14.93;79.54
49311;BME280;35177;45.900;5.946;2023-08-31T07:21:42;97581.84;;;14.99;79.51
49311;BME280;35177;45.900;5.946;2023-08-31T07:24:08;97586.41;;;15.08;80.58
49311;BME280;35177;45.900;5.946;2023-08-31T07:26:33;97583.75;;;15.08;78.92
49311;BME280;35177;45.900;5.946;2023-08-31T07:29:00;97589.59;;;15.22;78.48
49311;BME280;35177;45.900;5.946;2023-08-31T07:31:26;97592.47;;;15.30;78.70
49311;BME280;35177;45.900;5.946;2023-08-31T07:33:52;97597.03;;;15.40;79.66
49311;BME280;35177;45.900;5.946;2023-08-31T07:36:17;97601.75;;;15.47;79.43
49311;BME280;35177;45.900;5.946;2023-08-31T07:38:43;97609.47;;;15.50;79.98
49311;BME280;35177;45.900;5.946;2023-08-31T07:41:08;97608.75;;;15.48;77.79
49311;BME280;35177;45.900;5.946;2023-08-31T07:43:33;97601.34;;;15.52;77.27
49311;BME280;35177;45.900;5.946;2023-08-31T07:45:59;97610.88;;;15.54;76.75
49311;BME280;35177;45.900;5.946;2023-08-31T07:48:24;97607.25;;;15.55;76.54
49311;BME280;35177;45.900;5.946;2023-08-31T07:50:49;97609.47;;;15.50;76.63
49311;BME280;35177;45.900;5.946;2023-08-31T07:53:15;97616.50;;;15.51;76.00
49311;BME280;35177;45.900;5.946;2023-08-31T07:55:52;97618.16;;;15.52;76.01
49311;BME280;35177;45.900;5.946;2023-08-31T07:58:22;97614.72;;;15.61;76.83
49311;BME280;35177;45.900;5.946;2023-08-31T08:00:49;97616.06;;;15.76;74.81
49311;BME280;35177;45.900;5.946;2023-08-31T08:03:17;97627.16;;;15.72;75.42
49311;BME280;35177;45.900;5.946;2023-08-31T08:05:42;97625.94;;;15.85;74.86
49311;BME280;35177;45.900;5.946;2023-08-31T08:08:08;97633.56;;;15.90;72.43
49311;BME280;35177;45.900;5.946;2023-08-31T08:10:33;97632.91;;;15.97;73.86
49311;BME280;35177;45.900;5.946;2023-08-31T08:12:58;97634.22;;;16.13;74.19
49311;BME280;35177;45.900;5.946;2023-08-31T08:15:24;97646.91;;;16.20;73.41
49311;BME280;35177;45.900;5.946;2023-08-31T08:17:50;97644.59;;;16.46;73.64
49311;BME280;35177;45.900;5.946;2023-08-31T08:20:16;97642.97;;;16.64;73.62
49311;BME280;35177;45.900;5.946;2023-08-31T08:22:41;97642.03;;;16.75;73.21
49311;BME280;35177;45.900;5.946;2023-08-31T08:25:07;97638.63;;;16.82;73.01
49311;BME280;35177;45.900;5.946;2023-08-31T08:27:33;97636.69;;;17.03;72.42
49311;BME280;35177;45.900;5.946;2023-08-31T08:29:59;97626.16;;;17.11;71.79
49311;BME280;35177;45.900;5.946;2023-08-31T08:32:24;97619.94;;;17.11;71.42
49311;BME280;35177;45.900;5.946;2023-08-31T08:34:50;97621.06;;;17.27;72.50
49311;BME280;35177;45.900;5.946;2023-08-31T08:37:16;97618.94;;;17.31;70.57
49311;BME280;35177;45.900;5.946;2023-08-31T08:39:41;97618.41;;;17.37;71.64
49311;BME280;35177;45.900;5.946;2023-08-31T08:42:07;97627.13;;;17.39;70.05
49311;BME280;35177;45.900;5.946;2023-08-31T08:44:35;97622.88;;;17.46;69.07
49311;BME280;35177;45.900;5.946;2023-08-31T08:47:01;97626.28;;;17.58;69.26
49311;BME280;35177;45.900;5.946;2023-08-31T08:49:28;97630.16;;;17.73;69.20
49311;BME280;35177;45.900;5.946;2023-08-31T08:51:55;97632.69;;;17.84;68.08
49311;BME280;35177;45.900;5.946;2023-08-31T08:54:22;97632.69;;;17.84;67.98
49311;BME280;35177;45.900;5.946;2023-08-31T08:56:47;97630.97;;;17.92;67.89
49311;BME280;35177;45.900;5.946;2023-08-31T08:59:14;97641.66;;;18.02;66.05
49311;BME280;35177;45.900;5.946;2023-08-31T09:01:39;97640.88;;;18.19;66.32
49311;BME280;35177;45.900;5.946;2023-08-31T09:04:05;97635.78;;;18.26;67.12
49311;BME280;35177;45.900;5.946;2023-08-31T09:06:32;97639.41;;;18.34;66.15
49311;BME280;35177;45.900;5.946;2023-08-31T09:08:58;97645.06;;;18.31;65.27
49311;BME280;35177;45.900;5.946;2023-08-31T09:11:24;97634.22;;;18.33;66.64
49311;BME280;35177;45.900;5.946;2023-08-31T09:13:50;97633.63;;;18.29;65.30
49311;BME280;35177;45.900;5.946;2023-08-31T09:16:46;97631.53;;;18.33;66.16
49311;BME280;35177;45.900;5.946;2023-08-31T09:19:19;97622.47;;;18.34;63.77
49311;BME280;35177;45.900;5.946;2023-08-31T09:21:47;97625.72;;;18.37;65.51
49311;BME280;35177;45.900;5.946;2023-08-31T09:24:12;97618.38;;;18.66;65.60
49311;BME280;35177;45.900;5.946;2023-08-31T09:26:45;97620.66;;;18.61;64.18
49311;BME280;35177;45.900;5.946;2023-08-31T09:29:12;97620.38;;;18.82;61.72
49311;BME280;35177;45.900;5.946;2023-08-31T09:31:37;97626.69;;;18.91;62.90
49311;BME280;35177;45.900;5.946;2023-08-31T09:34:03;97624.94;;;18.99;58.20
49311;BME280;35177;45.900;5.946;2023-08-31T09:36:28;97618.19;;;18.95;57.89
49311;BME280;35177;45.900;5.946;2023-08-31T09:38:56;97620.03;;;18.95;58.17
49311;BME280;35177;45.900;5.946;2023-08-31T09:41:23;97619.09;;;19.04;56.94
49311;BME280;35177;45.900;5.946;2023-08-31T09:43:48;97620.19;;;19.11;60.46
49311;BME280;35177;45.900;5.946;2023-08-31T09:46:14;97619.94;;;19.22;56.87
49311;BME280;35177;45.900;5.946;2023-08-31T09:48:41;97618.03;;;19.32;56.48
49311;BME280;35177;45.900;5.946;2023-08-31T09:51:09;97611.38;;;19.36;56.49
49311;BME280;35177;45.900;5.946;2023-08-31T09:53:36;97614.47;;;19.49;56.67
49311;BME280;35177;45.900;5.946;2023-08-31T09:56:04;97614.03;;;19.79;54.75
49311;BME280;35177;45.900;5.946;2023-08-31T09:58:31;97608.63;;;19.97;53.14
49311;BME280;35177;45.900;5.946;2023-08-31T10:00:56;97612.53;;;20.02;54.50
49311;BME280;35177;45.900;5.946;2023-08-31T10:03:23;97613.03;;;20.40;53.49
49311;BME280;35177;45.900;5.946;2023-08-31T10:05:49;97610.44;;;20.64;53.07
49311;BME280;35177;45.900;5.946;2023-08-31T10:08:15;97614.84;;;20.73;52.00
49311;BME280;35177;45.900;5.946;2023-08-31T10:10:41;97621.91;;;20.74;49.65
49311;BME280;35177;45.900;5.946;2023-08-31T10:13:07;97619.28;;;20.98;49.17
49311;BME280;35177;45.900;5.946;2023-08-31T10:15:34;97625.63;;;20.81;50.94
49311;BME280;35177;45.900;5.946;2023-08-31T10:18:07;97624.66;;;20.90;51.27
49311;BME280;35177;45.900;5.946;2023-08-31T10:20:33;97623.97;;;20.88;50.60
49311;BME280;35177;45.900;5.946;2023-08-31T10:25:25;97617.84;;;20.70;48.52
49311;BME280;35177;45.900;5.946;2023-08-31T10:27:52;97609.03;;;21.02;47.36
49311;BME280;35177;45.900;5.946;2023-08-31T10:38:26;97604.88;;;21.48;45.33
49311;BME280;35177;45.900;5.946;2023-08-31T10:43:58;97602.81;;;22.06;44.94
49311;BME280;35177;45.900;5.946;2023-08-31T10:46:35;97595.44;;;21.76;45.46
49311;BME280;35177;45.900;5.946;2023-08-31T10:51:34;97595.28;;;21.45;46.03
49311;BME280;35177;45.900;5.946;2023-08-31T10:54:25;97594.91;;;21.80;47.68
49311;BME280;35177;45.900;5.946;2023-08-31T10:59:21;97594.28;;;21.46;46.78
49311;BME280;35177;45.900;5.946;2023-08-31T11:01:58;97586.66;;;21.82;46.95
49311;BME280;35177;45.900;5.946;2023-08-31T11:04:26;97587.34;;;21.76;46.76
49311;BME280;35177;45.900;5.946;2023-08-31T11:07:11;97589.53;;;21.80;45.19
49311;BME280;35177;45.900;5.946;2023-08-31T11:09:37;97599.41;;;22.20;45.76
49311;BME280;35177;45.900;5.946;2023-08-31T11:12:03;97593.22;;;22.42;44.29
49311;BME280;35177;45.900;5.946;2023-08-31T11:14:29;97590.47;;;22.20;43.38
49311;BME280;35177;45.900;5.946;2023-08-31T11:16:55;97580.59;;;22.04;45.63
49311;BME280;35177;45.900;5.946;2023-08-31T11:19:20;97586.19;;;22.41;45.94
49311;BME280;35177;45.900;5.946;2023-08-31T11:21:46;97591.84;;;22.54;42.22
49311;BME280;35177;45.900;5.946;2023-08-31T11:24:11;97586.50;;;22.77;42.22
49311;BME280;35177;45.900;5.946;2023-08-31T11:26:37;97584.06;;;22.59;43.60
49311;BME280;35177;45.900;5.946;2023-08-31T11:29:06;97575.16;;;22.90;43.54
49311;BME280;35177;45.900;5.946;2023-08-31T11:31:32;97586.09;;;22.57;44.51
49311;BME280;35177;45.900;5.946;2023-08-31T11:33:58;97585.47;;;22.47;44.43
49311;BME280;35177;45.900;5.946;2023-08-31T11:36:24;97581.38;;;22.59;43.46
49311;BME280;35177;45.900;5.946;2023-08-31T11:38:50;97584.97;;;22.83;42.50
49311;BME280;35177;45.900;5.946;2023-08-31T11:41:16;97583.78;;;22.85;43.00
49311;BME280;35177;45.900;5.946;2023-08-31T11:43:42;97580.78;;;22.80;42.48
49311;BME280;35177;45.900;5.946;2023-08-31T11:46:08;97589.06;;;23.01;42.91
49311;BME280;35177;45.900;5.946;2023-08-31T11:48:34;97587.22;;;23.02;41.79
49311;BME280;35177;45.900;5.946;2023-08-31T11:51:00;97589.84;;;22.87;43.06
49311;BME280;35177;45.900;5.946;2023-08-31T11:53:26;97579.72;;;23.12;42.47
49311;BME280;35177;45.900;5.946;2023-08-31T11:55:52;97584.03;;;22.98;44.41
49311;BME280;35177;45.900;5.946;2023-08-31T11:58:19;97583.78;;;22.85;43.32
49311;BME280;35177;45.900;5.946;2023-08-31T12:00:45;97585.09;;;23.12;41.41
49311;BME280;35177;45.900;5.946;2023-08-31T12:03:12;97584.94;;;23.13;42.45
49311;BME280;35177;45.900;5.946;2023-08-31T12:05:47;97591.75;;;22.78;42.10
49311;BME280;35177;45.900;5.946;2023-08-31T12:08:16;97594.69;;;22.92;41.46
49311;BME280;35177;45.900;5.946;2023-08-31T12:10:41;97585.22;;;22.96;41.96
49311;BME280;35177;45.900;5.946;2023-08-31T12:13:11;97591.00;;;23.15;40.53
49311;BME280;35177;45.900;5.946;2023-08-31T12:15:38;97604.06;;;23.26;40.77
49311;BME280;35177;45.900;5.946;2023-08-31T12:18:13;97595.09;;;23.34;40.87
49311;BME280;35177;45.900;5.946;2023-08-31T12:20:51;97594.84;;;23.21;41.82
49311;BME280;35177;45.900;5.946;2023-08-31T12:23:17;97590.66;;;23.41;43.18
49311;BME280;35177;45.900;5.946;2023-08-31T12:25:53;97589.81;;;23.18;45.69
49311;BME280;35177;45.900;5.946;2023-08-31T12:28:22;97590.56;;;23.34;43.80
49311;BME280;35177;45.900;5.946;2023-08-31T12:30:52;97589.56;;;23.50;42.36
49311;BME280;35177;45.900;5.946;2023-08-31T12:33:19;97586.69;;;23.29;42.71
49311;BME280;35177;45.900;5.946;2023-08-31T12:35:45;97592.44;;;23.71;41.74
49311;BME280;35177;45.900;5.946;2023-08-31T12:38:11;97587.66;;;23.73;42.33
49311;BME280;35177;45.900;5.946;2023-08-31T12:40:36;97581.94;;;23.31;42.99
49311;BME280;35177;45.900;5.946;2023-08-31T12:43:04;97584.84;;;23.07;42.22
49311;BME280;35177;45.900;5.946;2023-08-31T12:45:30;97586.88;;;23.27;43.54
49311;BME280;35177;45.900;5.946;2023-08-31T12:47:55;97584.66;;;22.77;42.88
49311;BME280;35177;45.900;5.946;2023-08-31T12:50:20;97578.59;;;22.75;43.01
49311;BME280;35177;45.900;5.946;2023-08-31T12:52:46;97578.16;;;22.95;42.48
49311;BME280;35177;45.900;5.946;2023-08-31T12:55:14;97576.38;;;23.32;41.82
49311;BME280;35177;45.900;5.946;2023-08-31T12:57:41;97575.34;;;23.33;41.98
49311;BME280;35177;45.900;5.946;2023-08-31T13:00:07;97579.50;;;23.44;42.17
49311;BME280;35177;45.900;5.946;2023-08-31T13:02:40;97575.22;;;23.27;40.84
49311;BME280;35177;45.900;5.946;2023-08-31T13:05:07;97572.88;;;23.24;40.90
49311;BME280;35177;45.900;5.946;2023-08-31T13:07:36;97574.53;;;23.70;40.22
49311;BME280;35177;45.900;5.946;2023-08-31T13:10:02;97564.75;;;23.84;41.59
49311;BME280;35177;45.900;5.946;2023-08-31T13:12:32;97569.28;;;23.31;40.98
49311;BME280;35177;45.900;5.946;2023-08-31T13:15:00;97571.22;;;23.23;41.87
49311;BME280;35177;45.900;5.946;2023-08-31T13:17:27;97565.81;;;23.97;41.30
49311;BME280;35177;45.900;5.946;2023-08-31T13:19:54;97575.00;;;23.88;38.83
49311;BME280;35177;45.900;5.946;2023-08-31T13:22:23;97561.41;;;23.82;40.10
49311;BME280;35177;45.900;5.946;2023-08-31T13:24:49;97569.63;;;23.51;40.61